This is the latest recevied weather packets stored in our database for station/object HK4LRM-13. If no packets are shown the sender has not sent any weather packets the latest 10 day(s).
| Time | Temp. | Humidity | Pressure | Rain* | Wind** | Luminosity | Snow |
|---|---|---|---|---|---|---|---|
| 1777846078 | 26.67° C | 54% | 1011 hPa | 0 mm | - | - | - |
| 1777845537 | 27.78° C | 51% | 1011 hPa | 0 mm | - | - | - |
| 1777844997 | 27.78° C | 51% | 1011 hPa | 0 mm | - | - | - |
| 1777844456 | 27.78° C | 51% | 1011 hPa | 0 mm | - | - | - |
| 1777843916 | 26.11° C | 56% | 1011 hPa | 0 mm | - | - | - |
| 1777843375 | 26.11° C | 56% | 1011 hPa | 0 mm | - | - | - |
| 1777842834 | 26.11° C | 56% | 1011 hPa | 0 mm | - | - | - |
| 1777842293 | 26.11° C | 56% | 1011 hPa | 0 mm | - | - | - |
| 1777841753 | 26.11° C | 57% | 1011 hPa | 0 mm | - | - | - |
| 1777841211 | 26.11° C | 57% | 1011 hPa | 0 mm | - | - | - |
| 1777840669 | 26.11° C | 57% | 1012 hPa | 0 mm | - | - | - |
| 1777840127 | 26.11° C | 57% | 1012 hPa | 0 mm | - | - | - |
| 1777839586 | 26.11° C | 57% | 1012 hPa | 0 mm | - | - | - |
| 1777839045 | 23.89° C | 61% | 1012 hPa | 0 mm | - | - | - |
| 1777838505 | 24.44° C | 60% | 1012 hPa | 0 mm | - | - | - |
| 1777837964 | 25° C | 60% | 1011 hPa | 0 mm | - | - | - |
| 1777837423 | 25° C | 59% | 1011 hPa | 0 mm | - | - | - |
| 1777836882 | 25° C | 59% | 1011 hPa | 0 mm | - | - | - |
| 1777836342 | 25° C | 59% | 1012 hPa | 0 mm | - | - | - |
| 1777835800 | 25° C | 59% | 1011 hPa | 0 mm | - | - | - |
| 1777835259 | 25° C | 60% | 1011 hPa | 0 mm | - | - | - |
| 1777834719 | 25° C | 59% | 1011 hPa | 0 mm | - | - | - |
| 1777834178 | 25° C | 59% | 1011 hPa | 0 mm | - | - | - |
| 1777833637 | 25° C | 59% | 1012 hPa | 0 mm | - | - | - |
| 1777833095 | 25° C | 58% | 1013 hPa | 0 mm | - | - | - |
* Rain latest hour (hover to see other rain measurements)
** Current wind speed in m/s (hover to see current wind gust speed)